クェゼリン環礁 の空港の天気 - METARとTAF

バックホルツ陸軍飛行場 ( PKWA / KWA ) - マーシャル諸島 クェゼリン環礁
飛行場実況気象(Metar)
観測時間10/22 04:20 MHT (10/21 16:20 UTC)
風向・風速東 5m/s
視程10km以上
天気現象
全天の4割程度の雲 雲底高度 610m
全天の4割程度の雲 雲底高度 760m
気温27.2℃
湿度89%
気圧1008hPa
METARPKWA 211620Z AUTO 09009KT 10SM SCT020 SCT025 27/25 A2978 RMK AO2 T02720252
過去の天気等 Google飛行場航空写真 Wunderground天気予報

過去48時間のMETAR

飛行場予報(TAF)
発表時間: 10/21 23:33 MHT (10/21 11:33 UTC)
予報対象時間: 22日0時 MHT ~ 23日0時 MHT
風向・風速不定 3m/s
視程10km以上
天気現象周辺でしゅう雨
全天の4割程度の雲 雲底高度 490m
全天の4割程度の雲 雲底高度 1520m
PKWA 211133Z 2112/2212 VRB06KT P6SM VCSH SCT016 SCT050